createdAt,value
2019-04-05T00:00:35.834Z,4.20
2019-04-05T00:06:05.229Z,4.20
2019-04-05T00:11:39.874Z,4.10
2019-04-05T00:17:07.711Z,4.10
2019-04-05T00:22:37.157Z,4.00
2019-04-05T00:28:07.435Z,4.00
2019-04-05T00:33:39.285Z,4.00
2019-04-05T00:39:10.783Z,4.10
2019-04-05T00:44:40.248Z,4.10
2019-04-05T00:50:10.536Z,4.00
2019-04-05T00:55:40.723Z,4.10
2019-04-05T01:01:11.151Z,4.10
2019-04-05T01:06:40.612Z,4.00
2019-04-05T01:12:12.782Z,4.00
2019-04-05T01:17:43.019Z,4.00
2019-04-05T01:23:12.989Z,4.00
2019-04-05T01:28:42.513Z,4.00
2019-04-05T01:34:11.898Z,4.00
2019-04-05T01:39:42.855Z,4.00
2019-04-05T01:45:12.471Z,4.00
2019-04-05T01:50:41.989Z,4.00
2019-04-05T01:56:11.305Z,4.00
2019-04-05T02:01:42.131Z,4.00
2019-04-05T02:07:11.629Z,4.10
2019-04-05T02:12:41.550Z,4.10
2019-04-05T02:18:10.994Z,4.10
2019-04-05T02:23:44.923Z,4.10
2019-04-05T02:29:14.407Z,4.10
2019-04-05T02:34:43.919Z,4.10
2019-04-05T02:40:16.591Z,4.10
2019-04-05T02:45:48.243Z,4.10
2019-04-05T02:51:21.906Z,4.10
2019-04-05T02:56:51.982Z,4.20
2019-04-05T03:02:22.182Z,4.10
2019-04-05T03:07:52.131Z,4.10
2019-04-05T03:13:24.178Z,4.10
2019-04-05T03:19:04.374Z,4.10
2019-04-05T03:24:37.162Z,4.10
2019-04-05T03:30:09.364Z,4.10
2019-04-05T03:35:38.772Z,4.00
2019-04-05T03:41:08.557Z,4.10
2019-04-05T03:46:54.856Z,4.10
2019-04-05T03:52:09.563Z,4.10
2019-04-05T03:57:39.000Z,4.10
2019-04-05T04:03:08.437Z,4.10
2019-04-05T04:08:38.034Z,4.10
2019-04-05T04:14:08.083Z,4.10
2019-04-05T04:19:38.060Z,4.10
2019-04-05T04:25:08.752Z,4.10
2019-04-05T04:30:39.001Z,4.10
2019-04-05T04:36:12.764Z,4.10
2019-04-05T04:41:40.112Z,4.20
2019-04-05T04:47:09.658Z,4.20
2019-04-05T04:52:39.420Z,4.20
2019-04-05T04:58:10.446Z,4.30
2019-04-05T05:03:42.075Z,4.20
2019-04-05T05:09:11.711Z,4.20
2019-04-05T05:14:41.283Z,4.20
2019-04-05T05:20:11.552Z,4.30
2019-04-05T05:25:41.118Z,4.30
2019-04-05T05:31:10.687Z,4.30
2019-04-05T05:36:40.093Z,4.40
2019-04-05T05:42:11.185Z,4.50
2019-04-05T05:47:51.284Z,4.50
2019-04-05T05:53:12.862Z,4.50
2019-04-05T05:58:42.290Z,4.50
2019-04-05T06:04:12.825Z,4.60
2019-04-05T06:09:42.289Z,4.60
2019-04-05T06:15:12.453Z,4.60
2019-04-05T06:20:42.857Z,4.50
2019-04-05T06:26:12.187Z,4.50
2019-04-05T06:31:41.720Z,4.40
2019-04-05T06:37:11.035Z,4.40
2019-04-05T06:42:40.373Z,4.50
2019-04-05T06:48:19.181Z,4.50
2019-04-05T06:53:41.034Z,4.60
2019-04-05T06:59:10.424Z,4.70
2019-04-05T07:04:40.171Z,4.80
2019-04-05T07:10:09.871Z,4.90
2019-04-05T07:15:39.232Z,4.90
2019-04-05T07:21:08.701Z,5.00
2019-04-05T07:26:38.100Z,5.10
2019-04-05T07:32:07.504Z,5.20
2019-04-05T07:37:37.999Z,5.30
2019-04-05T07:43:07.492Z,5.50
2019-04-05T07:48:44.763Z,5.40
2019-04-05T07:54:07.986Z,5.40
2019-04-05T07:59:37.383Z,5.30
2019-04-05T08:05:08.371Z,5.40
2019-04-05T08:10:37.834Z,5.50
2019-04-05T08:16:07.620Z,5.70
2019-04-05T08:21:36.868Z,5.80
2019-04-05T08:27:06.268Z,5.90
2019-04-05T08:32:35.989Z,6.00
2019-04-05T08:38:05.955Z,6.00
2019-04-05T08:43:35.397Z,6.10
2019-04-05T08:49:10.919Z,6.20
2019-04-05T08:54:37.112Z,6.20
2019-04-05T09:00:09.393Z,6.50
2019-04-05T09:05:38.940Z,6.60
2019-04-05T09:11:08.285Z,6.70
2019-04-05T09:16:37.711Z,6.90
2019-04-05T09:22:07.111Z,7.10
2019-04-05T09:27:36.591Z,7.30
2019-04-05T09:33:06.155Z,7.50
2019-04-05T09:38:35.563Z,7.50
2019-04-05T09:44:05.768Z,7.60
2019-04-05T09:49:37.039Z,7.50
2019-04-05T09:55:07.893Z,7.40
2019-04-05T10:00:38.690Z,7.20
2019-04-05T10:06:08.166Z,7.10
2019-04-05T10:11:37.693Z,7.10
2019-04-05T10:17:07.987Z,7.00
2019-04-05T10:22:40.352Z,7.10
2019-04-05T10:28:12.290Z,7.10
2019-04-05T10:33:43.445Z,7.10
2019-04-05T10:39:14.945Z,7.10
2019-04-05T10:44:45.401Z,7.20
2019-04-05T10:50:16.414Z,7.30
2019-04-05T10:55:45.900Z,7.40
2019-04-05T11:01:15.306Z,7.60
2019-04-05T11:06:44.799Z,7.60
2019-04-05T11:12:14.325Z,7.60
2019-04-05T11:17:43.722Z,7.80
2019-04-05T11:23:13.220Z,8.00
2019-04-05T11:28:42.630Z,8.30
2019-04-05T11:34:12.191Z,8.50
2019-04-05T11:39:41.645Z,8.60
2019-04-05T11:45:11.325Z,8.70
2019-04-05T11:50:41.002Z,8.80
2019-04-05T11:56:14.871Z,8.90
2019-04-05T12:01:49.113Z,9.00
2019-04-05T12:07:21.617Z,9.10
2019-04-05T12:12:49.853Z,9.20
2019-04-05T12:18:19.660Z,9.30
2019-04-05T12:23:49.318Z,9.30
2019-04-05T12:29:18.659Z,9.20
2019-04-05T12:34:49.531Z,9.20
2019-04-05T12:40:20.898Z,9.30
2019-04-05T12:45:50.352Z,9.30
2019-04-05T12:51:19.747Z,9.30
2019-04-05T12:56:49.294Z,9.30
2019-04-05T13:02:27.882Z,9.40
2019-04-05T13:07:50.651Z,9.30
2019-04-05T13:13:21.177Z,9.40
2019-04-05T13:18:50.558Z,9.70
2019-04-05T13:24:19.868Z,10.20
2019-04-05T13:29:49.683Z,10.40
2019-04-05T13:35:18.995Z,10.40
2019-04-05T13:40:48.396Z,10.40
2019-04-05T13:46:22.208Z,11.20
2019-04-05T13:51:49.207Z,11.90
2019-04-05T13:57:18.668Z,12.30
2019-04-05T14:02:50.015Z,11.60
2019-04-05T14:08:19.225Z,11.20
2019-04-05T14:13:48.556Z,11.00
2019-04-05T14:19:19.133Z,11.10
2019-04-05T14:24:50.401Z,10.90
2019-04-05T14:30:20.023Z,10.70
2019-04-05T14:35:49.363Z,10.50
2019-04-05T14:41:18.825Z,10.30
2019-04-05T14:46:48.146Z,10.20
2019-04-05T14:52:18.094Z,10.20
2019-04-05T14:57:47.550Z,10.40
2019-04-05T15:03:17.181Z,10.60
2019-04-05T15:08:48.055Z,11.40
2019-04-05T15:14:17.712Z,11.30
2019-04-05T15:19:47.049Z,11.10
2019-04-05T15:25:18.810Z,10.90
2019-04-05T15:30:49.494Z,10.70
2019-04-05T15:36:19.345Z,10.60
2019-04-05T15:41:48.814Z,10.50
2019-04-05T15:47:18.303Z,10.30
2019-04-05T15:52:47.726Z,10.20
2019-04-05T15:58:17.206Z,10.20
2019-04-05T16:03:52.799Z,9.90
2019-04-05T16:09:22.532Z,9.80
2019-04-05T16:14:52.158Z,9.80
2019-04-05T16:20:22.001Z,9.80
2019-04-05T16:25:51.620Z,9.70
2019-04-05T16:31:21.193Z,9.60
2019-04-05T16:36:50.855Z,9.60
2019-04-05T16:42:20.373Z,9.60
2019-04-05T16:47:49.902Z,9.60
2019-04-05T16:53:19.930Z,9.60
2019-04-05T16:58:49.589Z,9.60
2019-04-05T17:04:20.013Z,9.60
2019-04-05T17:09:49.685Z,9.50
2019-04-05T17:15:19.252Z,9.40
2019-04-05T17:20:49.073Z,9.30
2019-04-05T17:26:18.460Z,9.20
2019-04-05T17:31:47.892Z,9.10
2019-04-05T17:37:17.500Z,8.90
2019-04-05T17:42:47.078Z,8.80
2019-04-05T17:48:16.450Z,8.70
2019-04-05T17:53:49.137Z,8.50
2019-04-05T17:59:20.605Z,8.40
2019-04-05T18:04:50.433Z,8.30
2019-04-05T18:10:21.018Z,8.10
2019-04-05T18:16:08.290Z,7.90
2019-04-05T18:28:18.045Z,7.60
2019-04-05T18:33:47.411Z,7.50
2019-04-05T18:39:17.051Z,7.40
2019-04-05T18:44:46.635Z,7.40
2019-04-05T18:50:16.311Z,7.30
2019-04-05T18:55:46.003Z,7.20
2019-04-05T19:01:16.550Z,7.10
2019-04-05T19:06:48.664Z,7.10
2019-04-05T19:12:20.069Z,7.00
2019-04-05T19:17:49.814Z,7.00
2019-04-05T19:23:19.161Z,7.00
2019-04-05T19:28:48.586Z,6.80
2019-04-05T19:51:03.709Z,6.60
2019-04-05T19:56:42.279Z,6.50
2019-04-05T20:02:19.201Z,6.40
2019-04-05T20:08:26.963Z,6.40
2019-04-05T20:13:58.668Z,6.30
2019-04-05T20:19:28.383Z,6.20
2019-04-05T20:24:58.036Z,6.20
2019-04-05T20:30:27.698Z,6.10
2019-04-05T20:35:57.214Z,6.00
2019-04-05T20:41:27.862Z,6.00
2019-04-05T20:46:57.380Z,5.90
2019-04-05T20:52:27.907Z,5.80
2019-04-05T20:57:57.760Z,5.90
2019-04-05T21:03:27.422Z,6.00
2019-04-05T21:08:57.077Z,6.10
2019-04-05T21:14:28.681Z,6.20
2019-04-05T21:19:58.428Z,6.30
2019-04-05T21:25:28.220Z,6.30
2019-04-05T21:30:58.041Z,6.30
2019-04-05T21:36:27.787Z,6.30
2019-04-05T21:41:57.422Z,6.30
2019-04-05T21:47:26.903Z,6.40
2019-04-05T21:52:56.434Z,6.40
2019-04-05T21:58:26.044Z,6.50
2019-04-05T22:03:56.004Z,6.60
2019-04-05T22:09:25.593Z,6.70
2019-04-05T22:14:55.024Z,6.70
2019-04-05T22:20:24.573Z,6.80
2019-04-05T22:25:55.830Z,6.80
2019-04-05T22:31:25.283Z,6.80
2019-04-05T22:36:55.679Z,6.80
2019-04-05T22:42:27.172Z,6.90
2019-04-05T22:47:57.587Z,6.90
2019-04-05T22:53:27.083Z,7.00
2019-04-05T22:58:56.719Z,7.00
2019-04-05T23:04:26.186Z,7.10
2019-04-05T23:09:55.815Z,7.10
2019-04-05T23:15:25.322Z,7.20
2019-04-05T23:20:54.868Z,7.20
2019-04-05T23:26:25.909Z,7.30
2019-04-05T23:31:55.422Z,7.20
2019-04-05T23:37:25.066Z,7.20
2019-04-05T23:42:54.546Z,7.20
2019-04-05T23:48:23.922Z,7.20
2019-04-05T23:53:53.382Z,7.20
2019-04-05T23:59:22.675Z,7.20
